createdAt,value
2019-03-22T00:00:20.365Z,67.60
2019-03-22T00:02:51.572Z,67.50
2019-03-22T00:05:21.224Z,67.40
2019-03-22T00:07:50.891Z,67.60
2019-03-22T00:10:21.226Z,67.60
2019-03-22T00:12:51.030Z,67.70
2019-03-22T00:15:20.616Z,67.70
2019-03-22T00:17:51.434Z,68.30
2019-03-22T00:20:21.170Z,67.70
2019-03-22T00:22:50.874Z,67.70
2019-03-22T00:25:20.424Z,67.80
2019-03-22T00:27:50.086Z,67.90
2019-03-22T00:30:19.805Z,67.70
2019-03-22T00:32:49.406Z,67.80
2019-03-22T00:35:18.998Z,67.60
2019-03-22T00:37:48.719Z,67.50
2019-03-22T00:40:18.805Z,67.20
2019-03-22T00:42:48.599Z,67.60
2019-03-22T00:45:19.250Z,67.90
2019-03-22T00:47:48.985Z,68.00
2019-03-22T00:50:18.659Z,67.90
2019-03-22T00:52:48.454Z,67.90
2019-03-22T00:55:18.172Z,68.00
2019-03-22T00:57:47.895Z,68.10
2019-03-22T01:00:17.545Z,68.50
2019-03-22T01:02:47.258Z,68.60
2019-03-22T01:05:16.995Z,68.60
2019-03-22T01:07:46.726Z,68.50
2019-03-22T01:10:16.321Z,68.60
2019-03-22T01:12:46.107Z,68.90
2019-03-22T01:15:16.055Z,68.90
2019-03-22T01:17:45.701Z,68.90
2019-03-22T01:20:15.842Z,68.80
2019-03-22T01:22:45.509Z,68.90
2019-03-22T01:25:15.218Z,68.70
2019-03-22T01:27:44.840Z,68.60
2019-03-22T01:30:18.188Z,68.50
2019-03-22T01:32:47.865Z,68.50
2019-03-22T01:35:17.530Z,68.20
2019-03-22T01:37:47.244Z,68.00
2019-03-22T01:40:17.272Z,67.90
2019-03-22T01:42:46.932Z,67.80
2019-03-22T01:45:18.255Z,67.70
2019-03-22T01:47:47.856Z,67.70
2019-03-22T01:50:18.440Z,67.70
2019-03-22T01:52:48.087Z,67.70
2019-03-22T01:55:17.980Z,67.80
2019-03-22T01:57:53.607Z,67.90
2019-03-22T02:00:18.959Z,68.00
2019-03-22T02:02:48.603Z,68.20
2019-03-22T02:05:18.702Z,68.20
2019-03-22T02:07:48.285Z,68.20
2019-03-22T02:10:18.121Z,68.30
2019-03-22T02:12:47.768Z,68.20
2019-03-22T02:15:18.005Z,68.10
2019-03-22T02:17:47.594Z,68.40
2019-03-22T02:20:18.075Z,68.30
2019-03-22T02:22:47.649Z,68.10
2019-03-22T02:25:17.268Z,68.00
2019-03-22T02:27:47.003Z,68.10
2019-03-22T02:30:18.154Z,68.10
2019-03-22T02:32:47.790Z,67.70
2019-03-22T02:35:28.347Z,67.50
2019-03-22T02:37:48.652Z,67.50
2019-03-22T02:40:18.320Z,67.90
2019-03-22T02:42:47.970Z,67.80
2019-03-22T02:45:17.675Z,68.20
2019-03-22T02:47:47.321Z,68.00
2019-03-22T02:50:19.036Z,67.70
2019-03-22T02:52:48.284Z,67.70
2019-03-22T02:55:17.861Z,67.80
2019-03-22T02:57:47.564Z,67.90
2019-03-22T03:00:18.363Z,67.90
2019-03-22T03:02:48.039Z,68.00
2019-03-22T03:05:17.638Z,68.30
2019-03-22T03:07:47.361Z,68.60
2019-03-22T03:10:17.978Z,68.80
2019-03-22T03:12:47.646Z,68.20
2019-03-22T03:15:18.832Z,67.80
2019-03-22T03:17:48.448Z,68.00
2019-03-22T03:20:19.351Z,68.30
2019-03-22T03:22:49.175Z,68.60
2019-03-22T03:25:19.158Z,68.20
2019-03-22T03:27:48.805Z,68.90
2019-03-22T03:30:21.769Z,69.00
2019-03-22T03:32:51.442Z,69.30
2019-03-22T03:35:21.141Z,69.40
2019-03-22T03:37:50.809Z,69.70
2019-03-22T03:40:20.487Z,69.60
2019-03-22T03:42:50.252Z,69.80
2019-03-22T03:45:33.866Z,70.00
2019-03-22T03:48:08.230Z,70.10
2019-03-22T03:50:38.510Z,70.40
2019-03-22T03:53:08.213Z,69.90
2019-03-22T03:55:37.827Z,68.90
2019-03-22T03:58:07.478Z,70.30
2019-03-22T04:00:37.138Z,70.20
2019-03-22T04:03:06.799Z,70.10
2019-03-22T04:05:36.370Z,70.70
2019-03-22T04:08:06.021Z,71.40
2019-03-22T04:10:35.644Z,71.70
2019-03-22T04:13:05.429Z,71.20
2019-03-22T04:15:35.130Z,70.60
2019-03-22T04:18:04.776Z,71.00
2019-03-22T04:20:35.423Z,70.50
2019-03-22T04:23:05.077Z,70.60
2019-03-22T04:25:34.889Z,70.50
2019-03-22T04:28:04.573Z,70.30
2019-03-22T04:30:34.294Z,69.70
2019-03-22T04:33:06.643Z,69.60
2019-03-22T04:35:35.361Z,69.60
2019-03-22T04:38:05.072Z,70.00
2019-03-22T04:40:34.643Z,70.20
2019-03-22T04:43:04.263Z,70.90
2019-03-22T04:45:36.023Z,71.80
2019-03-22T04:48:17.201Z,70.90
2019-03-22T04:50:49.074Z,70.90
2019-03-22T04:53:22.051Z,71.00
2019-03-22T04:55:55.864Z,71.00
2019-03-22T04:58:26.578Z,71.70
2019-03-22T05:00:58.331Z,71.10
2019-03-22T05:03:29.345Z,71.40
2019-03-22T05:06:01.869Z,72.10
2019-03-22T05:08:34.322Z,71.20
2019-03-22T05:11:06.022Z,70.90
2019-03-22T05:13:37.514Z,70.60
2019-03-22T05:16:10.109Z,70.50
2019-03-22T05:18:43.921Z,71.20
2019-03-22T05:21:14.630Z,71.10
2019-03-22T05:23:46.290Z,70.70
2019-03-22T05:26:18.594Z,71.40
2019-03-22T05:28:48.850Z,71.70
2019-03-22T05:31:38.394Z,71.20
2019-03-22T05:34:08.145Z,71.50
2019-03-22T05:36:37.822Z,73.00
2019-03-22T05:39:09.056Z,73.40
2019-03-22T05:41:38.759Z,73.80
2019-03-22T05:44:08.427Z,73.80
2019-03-22T05:46:38.019Z,73.20
2019-03-22T05:49:07.697Z,73.20
2019-03-22T05:51:37.429Z,73.10
2019-03-22T05:54:07.169Z,72.80
2019-03-22T05:56:36.835Z,72.90
2019-03-22T05:59:06.499Z,73.70
2019-03-22T06:01:36.162Z,73.40
2019-03-22T06:04:05.868Z,73.20
2019-03-22T06:06:35.538Z,73.10
2019-03-22T06:09:07.636Z,73.10
2019-03-22T06:11:37.332Z,73.60
2019-03-22T06:14:07.009Z,74.30
2019-03-22T06:16:36.660Z,74.90
2019-03-22T06:19:06.259Z,75.00
2019-03-22T06:21:35.918Z,75.50
2019-03-22T06:24:05.592Z,75.90
2019-03-22T06:26:35.166Z,76.10
2019-03-22T06:29:04.840Z,76.30
2019-03-22T06:31:34.415Z,76.60
2019-03-22T06:34:04.056Z,77.00
2019-03-22T06:36:33.715Z,77.90
2019-03-22T06:39:07.310Z,77.60
2019-03-22T06:41:37.218Z,76.70
2019-03-22T06:44:06.927Z,75.70
2019-03-22T06:46:36.626Z,74.80
2019-03-22T06:49:06.352Z,73.70
2019-03-22T06:51:35.961Z,73.10
2019-03-22T06:54:05.600Z,73.10
2019-03-22T06:56:35.263Z,72.40
2019-03-22T06:59:05.064Z,71.00
2019-03-22T07:01:34.724Z,69.90
2019-03-22T07:04:04.384Z,70.00
2019-03-22T07:06:34.097Z,69.60
2019-03-22T07:09:05.294Z,68.30
2019-03-22T07:11:34.971Z,69.50
2019-03-22T07:14:04.617Z,70.30
2019-03-22T07:16:34.280Z,68.10
2019-03-22T07:19:04.099Z,68.00
2019-03-22T07:21:33.822Z,68.60
2019-03-22T07:24:03.480Z,67.30
2019-03-22T07:26:33.227Z,66.50
2019-03-22T07:29:02.965Z,65.60
2019-03-22T07:31:32.620Z,65.10
2019-03-22T07:34:02.303Z,63.90
2019-03-22T07:36:31.995Z,63.90
2019-03-22T07:39:01.657Z,61.90
2019-03-22T07:41:31.600Z,62.60
2019-03-22T07:44:01.322Z,61.70
2019-03-22T07:46:31.005Z,61.80
2019-03-22T07:49:00.731Z,60.20
2019-03-22T07:51:30.394Z,58.80
2019-03-22T07:54:00.063Z,57.30
2019-03-22T07:56:29.788Z,56.00
2019-03-22T07:58:59.475Z,53.70
2019-03-22T08:01:29.061Z,53.70
2019-03-22T08:03:58.716Z,51.70
2019-03-22T08:06:28.369Z,50.60
2019-03-22T08:08:58.090Z,50.90
2019-03-22T08:11:27.764Z,45.60
2019-03-22T08:13:57.400Z,47.20
2019-03-22T08:16:27.137Z,44.70
2019-03-22T08:18:56.862Z,47.20
2019-03-22T08:21:26.514Z,46.50
2019-03-22T08:23:56.325Z,46.10
2019-03-22T08:26:26.012Z,45.50
2019-03-22T08:28:55.731Z,44.40
2019-03-22T08:31:25.396Z,44.30
2019-03-22T08:33:56.040Z,41.20
2019-03-22T08:36:25.701Z,42.10
2019-03-22T08:38:55.507Z,39.10
2019-03-22T08:41:26.107Z,37.90
2019-03-22T08:43:55.807Z,40.30
2019-03-22T08:46:25.450Z,39.30
2019-03-22T08:48:55.152Z,41.30
2019-03-22T08:51:24.789Z,40.80
2019-03-22T08:53:55.734Z,40.30
2019-03-22T08:56:25.426Z,41.30
2019-03-22T08:58:55.176Z,39.00
2019-03-22T09:01:24.898Z,36.80
2019-03-22T09:03:54.600Z,35.20
2019-03-22T09:06:24.238Z,35.70
2019-03-22T09:08:53.870Z,37.00
2019-03-22T09:11:23.440Z,37.70
2019-03-22T09:13:53.891Z,38.20
2019-03-22T09:16:23.755Z,35.60
2019-03-22T09:18:53.462Z,36.50
2019-03-22T09:21:23.108Z,35.90
2019-03-22T09:23:52.818Z,32.60
2019-03-22T09:26:22.554Z,34.90
2019-03-22T09:28:52.264Z,35.50
2019-03-22T09:31:21.957Z,33.10
2019-03-22T09:33:51.608Z,31.80
2019-03-22T09:36:21.320Z,31.90
2019-03-22T09:38:51.006Z,33.60
2019-03-22T09:41:20.693Z,32.40
2019-03-22T09:43:50.362Z,32.80
2019-03-22T09:46:20.110Z,31.90
2019-03-22T09:48:49.845Z,31.10
2019-03-22T09:51:19.447Z,31.00
2019-03-22T09:53:49.154Z,32.50
2019-03-22T09:56:18.772Z,32.50
2019-03-22T09:58:48.500Z,31.10
2019-03-22T10:01:23.483Z,31.40
2019-03-22T10:03:49.566Z,29.00
2019-03-22T10:06:19.380Z,31.30
2019-03-22T10:08:49.082Z,32.60
2019-03-22T10:11:18.716Z,31.70
2019-03-22T10:13:48.548Z,28.80
2019-03-22T10:16:19.402Z,28.80
2019-03-22T10:18:49.114Z,29.90
2019-03-22T10:21:22.631Z,28.70
2019-03-22T10:23:50.985Z,27.60
2019-03-22T10:26:20.712Z,27.60
2019-03-22T10:28:50.358Z,27.30
2019-03-22T10:31:20.071Z,25.90
2019-03-22T10:33:49.801Z,27.10
2019-03-22T10:36:19.514Z,27.20
2019-03-22T10:38:50.421Z,27.20
2019-03-22T10:41:20.365Z,25.60
2019-03-22T10:43:49.984Z,24.90
2019-03-22T10:46:19.753Z,27.70
2019-03-22T10:48:49.315Z,28.10
2019-03-22T10:51:21.413Z,27.50
2019-03-22T10:53:50.338Z,27.60
2019-03-22T10:56:19.908Z,26.70
2019-03-22T10:58:49.538Z,26.80
2019-03-22T11:01:19.198Z,24.90
2019-03-22T11:03:48.979Z,26.20
2019-03-22T11:06:25.961Z,24.70
2019-03-22T11:08:50.009Z,26.60
2019-03-22T11:11:19.736Z,25.80
2019-03-22T11:13:49.404Z,23.80
2019-03-22T11:16:19.056Z,23.10
2019-03-22T11:18:48.734Z,24.90
2019-03-22T11:21:18.317Z,25.00
2019-03-22T11:23:48.012Z,23.90
2019-03-22T11:26:17.673Z,22.90
2019-03-22T11:28:47.340Z,24.30
2019-03-22T11:31:17.090Z,24.60
2019-03-22T11:33:47.260Z,22.80
2019-03-22T11:36:16.984Z,21.80
2019-03-22T11:38:46.663Z,21.30
2019-03-22T11:41:16.343Z,21.10
2019-03-22T11:43:46.064Z,20.80
2019-03-22T11:46:15.648Z,21.60
2019-03-22T11:48:45.326Z,21.70
2019-03-22T11:51:14.897Z,20.10
2019-03-22T11:53:45.523Z,22.50
2019-03-22T11:56:15.235Z,21.80
2019-03-22T11:58:44.914Z,21.00
2019-03-22T12:01:19.666Z,22.10
2019-03-22T12:03:45.834Z,23.00
2019-03-22T12:06:15.562Z,22.80
2019-03-22T12:08:45.224Z,23.40
2019-03-22T12:11:14.959Z,23.20
2019-03-22T12:13:44.663Z,22.30
2019-03-22T12:16:14.305Z,21.40
2019-03-22T12:18:43.921Z,22.90
2019-03-22T12:21:13.567Z,22.20
2019-03-22T12:23:43.247Z,23.10
2019-03-22T12:26:12.965Z,23.60
2019-03-22T12:28:42.644Z,23.20
2019-03-22T12:31:12.347Z,23.70
2019-03-22T12:33:41.968Z,22.90
2019-03-22T12:36:11.600Z,22.70
2019-03-22T12:38:42.036Z,20.50
2019-03-22T12:41:11.718Z,20.50
2019-03-22T12:43:41.385Z,21.50
2019-03-22T12:46:11.057Z,21.70
2019-03-22T12:48:40.712Z,20.40
2019-03-22T12:51:10.401Z,20.50
2019-03-22T12:53:40.034Z,21.90
2019-03-22T12:56:09.698Z,20.50
2019-03-22T12:58:39.428Z,21.10
2019-03-22T13:01:10.269Z,21.80
2019-03-22T13:03:40.074Z,21.00
2019-03-22T13:06:09.673Z,20.70
2019-03-22T13:08:39.400Z,21.70
2019-03-22T13:11:09.082Z,20.40
2019-03-22T13:13:38.672Z,20.90
2019-03-22T13:16:08.418Z,21.80
2019-03-22T13:18:38.122Z,22.10
2019-03-22T13:21:07.758Z,22.10
2019-03-22T13:23:37.399Z,21.70
2019-03-22T13:26:07.072Z,21.40
2019-03-22T13:28:37.767Z,21.50
2019-03-22T13:31:07.342Z,21.10
2019-03-22T13:33:37.076Z,21.40
2019-03-22T13:36:07.043Z,21.40
2019-03-22T13:38:36.690Z,21.90
2019-03-22T13:41:06.294Z,22.60
2019-03-22T13:43:35.970Z,21.10
2019-03-22T13:46:05.624Z,22.60
2019-03-22T13:48:35.364Z,21.80
2019-03-22T13:51:05.075Z,21.60
2019-03-22T13:53:34.702Z,22.10
2019-03-22T13:56:04.575Z,22.40
2019-03-22T13:58:34.165Z,22.60
2019-03-22T14:01:03.818Z,22.10
2019-03-22T14:03:33.471Z,22.70
2019-03-22T14:06:03.134Z,22.00
2019-03-22T14:08:33.812Z,23.30
2019-03-22T14:11:03.476Z,22.30
2019-03-22T14:13:33.196Z,23.10
2019-03-22T14:16:02.859Z,22.50
2019-03-22T14:18:32.607Z,23.20
2019-03-22T14:21:02.478Z,23.50
2019-03-22T14:23:33.048Z,22.90
2019-03-22T14:26:02.772Z,23.10
2019-03-22T14:28:32.507Z,23.50
2019-03-22T14:31:02.229Z,24.20
2019-03-22T14:33:31.887Z,24.80
2019-03-22T14:36:01.619Z,24.50
2019-03-22T14:38:31.358Z,24.60
2019-03-22T14:41:01.036Z,24.10
2019-03-22T14:43:30.731Z,24.50
2019-03-22T14:46:00.518Z,24.60
2019-03-22T14:48:30.210Z,24.40
2019-03-22T14:50:59.858Z,25.10
2019-03-22T14:53:29.535Z,25.00
2019-03-22T14:55:59.247Z,25.40
2019-03-22T14:58:28.968Z,25.50
2019-03-22T15:00:58.672Z,25.30
2019-03-22T15:03:28.317Z,25.60
2019-03-22T15:05:58.099Z,25.40
2019-03-22T15:08:27.768Z,25.30
2019-03-22T15:10:57.423Z,25.80
2019-03-22T15:13:28.662Z,26.00
2019-03-22T15:16:05.686Z,26.30
2019-03-22T15:18:39.673Z,26.60
2019-03-22T15:21:16.705Z,27.00
2019-03-22T15:24:04.192Z,26.60
2019-03-22T15:26:51.750Z,27.00
2019-03-22T15:29:29.296Z,26.70
2019-03-22T15:32:15.760Z,27.30
2019-03-22T15:35:03.471Z,27.50
2019-03-22T15:37:47.018Z,27.70
2019-03-22T15:40:16.764Z,28.20
2019-03-22T15:42:46.526Z,28.20
2019-03-22T15:47:46.031Z,28.30
2019-03-22T15:50:16.180Z,28.20
2019-03-22T15:52:45.927Z,28.70
2019-03-22T15:55:16.679Z,29.50
2019-03-22T15:57:46.401Z,28.90
2019-03-22T16:00:18.575Z,29.10
2019-03-22T16:02:48.261Z,29.20
2019-03-22T16:05:18.638Z,29.20
2019-03-22T16:07:48.574Z,29.20
2019-03-22T16:10:18.172Z,29.00
2019-03-22T16:12:47.888Z,29.00
2019-03-22T16:15:18.618Z,29.10
2019-03-22T16:17:48.357Z,29.00
2019-03-22T16:20:18.195Z,29.30
2019-03-22T16:22:47.854Z,29.60
2019-03-22T16:25:17.648Z,29.80
2019-03-22T16:27:47.410Z,29.90
2019-03-22T16:30:17.099Z,29.30
2019-03-22T16:32:46.820Z,29.10
2019-03-22T16:35:16.494Z,29.10
2019-03-22T16:37:46.125Z,29.20
2019-03-22T16:40:23.841Z,29.30
2019-03-22T16:42:49.975Z,29.50
2019-03-22T16:45:33.916Z,29.70
2019-03-22T16:48:03.657Z,30.00
2019-03-22T16:50:33.400Z,30.70
2019-03-22T16:53:03.065Z,31.40
2019-03-22T16:55:33.810Z,32.00
2019-03-22T16:58:04.826Z,32.60
2019-03-22T17:00:34.626Z,32.90
2019-03-22T17:03:06.786Z,33.60
2019-03-22T17:05:36.516Z,34.20
2019-03-22T17:08:06.205Z,34.10
2019-03-22T17:10:35.886Z,35.40
2019-03-22T17:13:05.732Z,36.40
2019-03-22T17:15:35.449Z,37.50
2019-03-22T17:18:05.566Z,37.10
2019-03-22T17:20:35.169Z,37.00
2019-03-22T17:23:04.962Z,37.00
2019-03-22T17:25:34.730Z,38.30
2019-03-22T17:28:04.340Z,37.80
2019-03-22T17:30:34.091Z,38.60
2019-03-22T17:33:03.834Z,38.40
2019-03-22T17:35:33.561Z,39.00
2019-03-22T17:38:03.228Z,39.30
2019-03-22T17:40:32.871Z,40.20
2019-03-22T17:43:02.540Z,40.70
2019-03-22T17:45:32.213Z,40.40
2019-03-22T17:48:01.937Z,40.80
2019-03-22T17:50:31.646Z,40.60
2019-03-22T17:53:01.330Z,42.00
2019-03-22T17:58:15.425Z,41.90
2019-03-22T18:00:45.863Z,42.50
2019-03-22T18:03:16.296Z,42.60
2019-03-22T18:05:46.137Z,42.60
2019-03-22T18:08:15.819Z,42.70
2019-03-22T18:10:45.501Z,43.00
2019-03-22T18:13:15.169Z,43.30
2019-03-22T18:15:44.844Z,43.30
2019-03-22T18:18:14.527Z,43.10
2019-03-22T18:20:44.177Z,42.50
2019-03-22T18:23:13.927Z,42.30
2019-03-22T18:25:43.655Z,41.90
2019-03-22T18:28:13.374Z,41.70
2019-03-22T18:30:43.063Z,41.50
2019-03-22T18:33:12.723Z,41.10
2019-03-22T18:35:42.407Z,40.70
2019-03-22T18:38:12.573Z,40.50
2019-03-22T18:40:42.199Z,39.30
2019-03-22T18:43:11.946Z,39.50
2019-03-22T18:45:41.692Z,38.80
2019-03-22T18:48:12.363Z,37.90
2019-03-22T18:50:41.950Z,38.10
2019-03-22T18:53:11.614Z,37.80
2019-03-22T18:55:41.272Z,37.30
2019-03-22T18:58:10.922Z,37.20
2019-03-22T19:00:41.993Z,37.30
2019-03-22T19:03:11.649Z,36.80
2019-03-22T19:05:41.396Z,37.00
2019-03-22T19:08:11.122Z,36.80
2019-03-22T19:10:40.856Z,37.00
2019-03-22T19:13:10.609Z,37.20
2019-03-22T19:15:40.354Z,37.30
2019-03-22T19:18:10.095Z,37.50
2019-03-22T19:20:39.793Z,37.80
2019-03-22T19:23:09.541Z,37.80
2019-03-22T19:25:39.216Z,38.20
2019-03-22T19:28:08.933Z,38.60
2019-03-22T19:30:38.651Z,38.70
2019-03-22T19:33:08.388Z,39.40
2019-03-22T19:35:38.075Z,39.40
2019-03-22T19:38:07.800Z,39.60
2019-03-22T19:40:37.548Z,40.50
2019-03-22T19:43:07.208Z,40.60
2019-03-22T19:45:36.959Z,40.80
2019-03-22T19:48:07.720Z,41.10
2019-03-22T19:50:37.412Z,41.90
2019-03-22T19:53:07.161Z,42.00
2019-03-22T19:55:36.914Z,42.70
2019-03-22T19:58:06.693Z,43.40
2019-03-22T20:00:36.384Z,42.70
2019-03-22T20:03:07.109Z,43.20
2019-03-22T20:05:36.788Z,44.90
2019-03-22T20:08:06.437Z,44.90
2019-03-22T20:10:36.169Z,45.20
2019-03-22T20:13:05.909Z,45.80
2019-03-22T20:15:35.562Z,45.60
2019-03-22T20:18:05.142Z,46.40
2019-03-22T20:20:36.203Z,46.60
2019-03-22T20:23:06.029Z,45.50
2019-03-22T20:25:35.772Z,45.70
2019-03-22T20:28:05.512Z,46.70
2019-03-22T20:30:35.220Z,45.90
2019-03-22T20:33:05.092Z,46.90
2019-03-22T20:35:34.815Z,47.50
2019-03-22T20:38:04.470Z,47.00
2019-03-22T20:40:34.267Z,48.00
2019-03-22T20:43:03.969Z,48.60
2019-03-22T20:45:33.712Z,49.20
2019-03-22T20:48:03.491Z,49.70
2019-03-22T20:50:36.103Z,51.10
2019-03-22T20:53:04.501Z,52.20
2019-03-22T20:55:34.178Z,51.30
2019-03-22T20:58:03.863Z,51.60
2019-03-22T21:00:33.513Z,54.20
2019-03-22T21:03:03.549Z,56.00
2019-03-22T21:05:33.198Z,56.30
2019-03-22T21:08:02.926Z,58.40
2019-03-22T21:10:32.671Z,56.90
2019-03-22T21:13:02.398Z,58.20
2019-03-22T21:15:32.057Z,60.00
2019-03-22T21:18:01.786Z,59.10
2019-03-22T21:20:31.441Z,60.30
2019-03-22T21:23:01.216Z,60.70
2019-03-22T21:25:30.992Z,61.90
2019-03-22T21:28:00.698Z,63.30
2019-03-22T21:30:30.451Z,62.20
2019-03-22T21:33:00.199Z,63.70
2019-03-22T21:35:37.156Z,63.70
2019-03-22T21:38:10.406Z,63.30
2019-03-22T21:40:32.559Z,63.70
2019-03-22T21:43:02.327Z,63.70
2019-03-22T21:45:32.142Z,63.70
2019-03-22T21:48:01.799Z,63.70
2019-03-22T21:50:31.653Z,63.70
2019-03-22T21:53:01.308Z,64.70
2019-03-22T21:55:31.055Z,65.20
2019-03-22T21:58:00.785Z,65.40
2019-03-22T22:00:30.524Z,63.80
2019-03-22T22:03:00.192Z,65.80
2019-03-22T22:05:29.860Z,65.80
2019-03-22T22:07:59.599Z,67.80
2019-03-22T22:10:29.354Z,66.00
2019-03-22T22:12:59.103Z,67.70
2019-03-22T22:15:28.757Z,65.50
2019-03-22T22:17:58.514Z,66.10
2019-03-22T22:20:41.599Z,68.30
2019-03-22T22:23:11.369Z,68.00
2019-03-22T22:25:41.228Z,66.30
2019-03-22T22:28:10.888Z,65.70
2019-03-22T22:30:40.626Z,69.40
2019-03-22T22:33:10.340Z,67.70
2019-03-22T22:35:40.086Z,66.60
2019-03-22T22:38:09.727Z,67.70
2019-03-22T22:40:39.442Z,67.10
2019-03-22T22:43:09.058Z,68.50
2019-03-22T22:45:38.790Z,67.90
2019-03-22T22:48:08.459Z,70.00
2019-03-22T22:50:38.221Z,68.00
2019-03-22T22:53:07.872Z,68.90
2019-03-22T22:55:38.024Z,68.20
2019-03-22T22:58:07.767Z,69.40
2019-03-22T23:00:38.117Z,70.40
2019-03-22T23:03:07.841Z,70.50
2019-03-22T23:05:37.517Z,70.40
2019-03-22T23:08:07.286Z,72.20
2019-03-22T23:10:37.017Z,71.00
2019-03-22T23:13:06.747Z,69.60
2019-03-22T23:15:36.539Z,68.70
2019-03-22T23:18:06.270Z,68.70
2019-03-22T23:20:36.192Z,69.20
2019-03-22T23:23:05.867Z,69.10
2019-03-22T23:25:36.642Z,69.20
2019-03-22T23:28:06.379Z,71.00
2019-03-22T23:30:36.101Z,69.90
2019-03-22T23:33:05.887Z,70.00
2019-03-22T23:35:35.624Z,71.30
2019-03-22T23:38:05.310Z,70.60
2019-03-22T23:40:34.978Z,71.20
2019-03-22T23:43:04.690Z,70.60
2019-03-22T23:45:34.424Z,71.70
2019-03-22T23:48:04.124Z,73.90
2019-03-22T23:50:33.856Z,70.20
2019-03-22T23:53:03.516Z,70.90
2019-03-22T23:55:33.202Z,70.40
2019-03-22T23:58:03.452Z,71.50
